Time;durP1;ratioP1;P1;durP2;ratioP2;P2;SDS_P1;SDS_P2;PMS_P1;PMS_P2;Temp;Humidity;BMP_temperature;BMP_pressure;BME280_temperature;BME280_humidity;BME280_pressure;Samples;Min_cycle;Max_cycle;Signal;HPM_P1;HPM_P2
2022/07/07 00:00:55;;;;;;;;;;;;;;;22.50;56.97;102217.63;7283357;19;152736;-61
2022/07/07 00:03:21;;;;;;;;;;;;;;;22.49;57.08;102207.47;7284017;19;153604;-61
2022/07/07 00:05:49;;;;;;;;;;;;;;;22.49;57.38;102210.31;7291381;19;152348;-61
2022/07/07 00:08:16;;;;;;;;;;;;;;;22.48;57.04;102211.47;7283019;19;153985;-62
2022/07/07 00:10:43;;;;;;;;;;;;;;;22.47;57.48;102210.63;7284534;19;152003;-61
2022/07/07 00:13:10;;;;;;;;;;;;;;;22.48;56.92;102205.81;7285773;19;153632;-62
2022/07/07 00:15:37;;;;;;;;;;;;;;;22.49;57.00;102210.31;7283706;19;153283;-61
2022/07/07 00:18:04;;;;;;;;;;;;;;;22.49;57.61;102208.34;7284424;19;151950;-61
2022/07/07 00:20:31;;;;;;;;;;;;;;;22.53;57.09;102214.25;7284989;19;154668;-61
2022/07/07 00:22:57;;;;;;;;;;;;;;;22.51;57.37;102211.72;7281691;19;153887;-61
2022/07/07 00:25:24;;;;;;;;;;;;;;;22.50;57.20;102218.47;7283759;19;152155;-60
2022/07/07 00:27:50;;;;;;;;;;;;;;;22.49;57.76;102204.66;7291789;19;152669;-60
2022/07/07 00:30:17;;;;;;;;;;;;;;;22.54;57.29;102205.47;7284806;19;152892;-62
2022/07/07 00:32:44;;;;;;;;;;;;;;;22.50;57.45;102212.00;7280208;19;154441;-62
2022/07/07 00:35:11;;;;;;;;;;;;;;;22.49;57.37;102213.13;7281880;19;153354;-62
2022/07/07 00:37:37;;;;;;;;;;;;;;;22.48;57.70;102209.50;7281900;19;152111;-61
2022/07/07 00:40:04;;;;;;;;;;;;;;;22.53;57.41;102212.25;7282804;19;153344;-61
2022/07/07 00:42:31;;;;;;;;;;;;;;;22.49;57.71;102219.59;7284279;19;153218;-63
2022/07/07 00:44:58;;;;;;;;;;;;;;;22.53;57.30;102209.44;7284860;19;152398;-62
2022/07/07 00:47:25;;;;;;;;;;;;;;;22.52;57.10;102212.56;7284910;19;152898;-62
2022/07/07 00:49:52;;;;;;;;;;;;;;;22.50;57.52;102215.66;7290577;19;153750;-62
2022/07/07 00:52:19;;;;;;;;;;;;;;;22.52;57.73;102219.03;7281448;19;154034;-61
2022/07/07 00:54:53;;;;;;;;;;;;;;;22.49;57.47;102208.34;7282663;19;153671;-61
2022/07/07 00:57:19;;;;;;;;;;;;;;;22.48;57.64;102208.63;7284459;19;152495;-61
2022/07/07 01:00:01;;;;;;;;;;;;;;;22.48;57.46;102201.03;7283073;19;154230;-62
2022/07/07 01:02:29;;;;;;;;;;;;;;;22.49;57.45;102199.03;7282214;19;152232;-62
2022/07/07 01:04:58;;;;;;;;;;;;;;;22.51;57.65;102199.59;7280763;19;152716;-62
2022/07/07 01:07:25;;;;;;;;;;;;;;;22.48;57.43;102201.03;7281637;19;152975;-61
2022/07/07 01:09:53;;;;;;;;;;;;;;;22.50;57.70;102206.34;7280242;19;155082;-61
2022/07/07 01:12:19;;;;;;;;;;;;;;;22.49;57.64;102197.06;7289449;19;151960;-62
2022/07/07 01:14:46;;;;;;;;;;;;;;;22.52;57.67;102198.47;7282854;19;154190;-61
2022/07/07 01:17:13;;;;;;;;;;;;;;;22.56;57.71;102200.41;7281253;19;152546;-62
2022/07/07 01:19:39;;;;;;;;;;;;;;;22.54;57.45;102202.66;7283095;19;152692;-61
2022/07/07 01:22:13;;;;;;;;;;;;;;;22.51;57.63;102206.06;7280183;19;154047;-62
2022/07/07 01:24:40;;;;;;;;;;;;;;;22.50;57.88;102203.53;7281644;19;152129;-61
2022/07/07 01:27:13;;;;;;;;;;;;;;;22.50;57.92;102200.72;7282533;19;152537;-62
2022/07/07 01:29:44;;;;;;;;;;;;;;;22.52;58.07;102190.88;7281693;19;153744;-62
2022/07/07 01:32:11;;;;;;;;;;;;;;;22.51;57.74;102194.81;7280687;19;152383;-62
2022/07/07 01:34:39;;;;;;;;;;;;;;;22.52;57.97;102198.47;7287241;19;152591;-61
2022/07/07 01:37:06;;;;;;;;;;;;;;;22.51;58.48;102206.06;7282546;19;153192;-61
2022/07/07 01:39:33;;;;;;;;;;;;;;;22.52;58.31;102207.78;7282078;19;153600;-61
2022/07/07 01:42:00;;;;;;;;;;;;;;;22.52;58.41;102202.13;7281380;19;152762;-62
2022/07/07 01:44:27;;;;;;;;;;;;;;;22.52;58.35;102207.78;7282291;19;152616;-61
2022/07/07 01:47:01;;;;;;;;;;;;;;;22.52;58.57;102210.59;7282827;19;152798;-61
2022/07/07 01:49:28;;;;;;;;;;;;;;;22.51;58.48;102202.41;7281487;19;153869;-61
2022/07/07 01:51:55;;;;;;;;;;;;;;;22.53;58.69;102215.06;7279942;19;152696;-61
2022/07/07 01:54:22;;;;;;;;;;;;;;;22.56;58.37;102216.47;7281839;19;152635;-62
2022/07/07 01:56:55;;;;;;;;;;;;;;;22.53;58.75;102215.06;7287389;19;152299;-61
2022/07/07 01:59:22;;;;;;;;;;;;;;;22.56;58.46;102213.66;7281938;19;152601;-61
2022/07/07 02:01:48;;;;;;;;;;;;;;;22.53;58.71;102219.88;7278567;19;153837;-62
2022/07/07 02:04:15;;;;;;;;;;;;;;;22.53;58.84;102205.78;7280698;19;152187;-61
2022/07/07 02:06:44;;;;;;;;;;;;;;;22.53;58.87;102215.06;7279695;19;153282;-61
2022/07/07 02:09:11;;;;;;;;;;;;;;;22.54;58.75;102213.09;7281159;19;153983;-61
2022/07/07 02:11:38;;;;;;;;;;;;;;;22.53;58.99;102220.69;7280622;19;152244;-61
2022/07/07 02:14:05;;;;;;;;;;;;;;;22.54;59.14;102219.56;7282304;19;153415;-61
2022/07/07 02:16:33;;;;;;;;;;;;;;;22.54;58.83;102213.94;7287394;19;152680;-61
2022/07/07 02:19:05;;;;;;;;;;;;;;;22.53;59.13;102215.06;7281865;19;152621;-61
2022/07/07 02:21:32;;;;;;;;;;;;;;;22.53;59.02;102231.97;7276772;19;153353;-61
2022/07/07 02:23:59;;;;;;;;;;;;;;;22.56;58.76;102228.59;7279992;19;152268;-61
2022/07/07 02:26:26;;;;;;;;;;;;;;;22.55;58.94;102218.44;7281668;19;153581;-61
2022/07/07 02:28:53;;;;;;;;;;;;;;;22.56;58.78;102227.75;7280848;19;151983;-61
2022/07/07 02:31:19;;;;;;;;;;;;;;;22.56;58.94;102233.38;7279002;19;152306;-61
2022/07/07 02:33:46;;;;;;;;;;;;;;;22.55;58.66;102226.91;7280001;19;152739;-61
2022/07/07 02:36:13;;;;;;;;;;;;;;;22.55;58.91;102221.25;7278654;19;154512;-61
2022/07/07 02:38:40;;;;;;;;;;;;;;;22.56;58.68;102214.50;7287320;19;154475;-61
2022/07/07 02:41:07;;;;;;;;;;;;;;;22.54;59.10;102216.75;7278740;19;152646;-61
2022/07/07 02:43:34;;;;;;;;;;;;;;;22.55;58.68;102224.06;7281100;19;152203;-61
2022/07/07 02:46:01;;;;;;;;;;;;;;;22.55;59.04;102221.25;7276881;19;152614;-62
2022/07/07 02:48:28;;;;;;;;;;;;;;;22.60;58.63;102223.19;7279149;19;152393;-61
2022/07/07 02:50:55;;;;;;;;;;;;;;;22.59;59.04;102227.16;7279399;19;152395;-62
2022/07/07 02:53:22;;;;;;;;;;;;;;;22.59;59.15;102225.19;7275827;19;152087;-61
2022/07/07 02:55:49;;;;;;;;;;;;;;;22.58;58.84;102231.94;7279271;19;153394;-61
2022/07/07 02:58:19;;;;;;;;;;;;;;;22.59;59.45;102222.34;7280525;19;152173;-61
2022/07/07 03:00:47;;;;;;;;;;;;;;;22.59;59.04;102227.16;7282338;19;153208;-62
2022/07/07 03:03:14;;;;;;;;;;;;;;;22.57;58.95;102235.06;7280442;19;152414;-61
2022/07/07 03:05:41;;;;;;;;;;;;;;;22.56;59.23;102225.78;7279320;19;152461;-61
2022/07/07 03:08:08;;;;;;;;;;;;;;;22.58;59.32;102228.28;7277807;19;153304;-61
2022/07/07 03:10:35;;;;;;;;;;;;;;;22.58;59.03;102231.09;7280837;19;152861;-61
2022/07/07 03:13:02;;;;;;;;;;;;;;;22.57;58.96;102235.91;7276746;19;152324;-60
2022/07/07 03:15:28;;;;;;;;;;;;;;;22.57;59.08;102235.91;7272833;19;153549;-61
2022/07/07 03:17:56;;;;;;;;;;;;;;;22.57;59.28;102238.72;7277750;19;152556;-62
2022/07/07 03:20:23;;;;;;;;;;;;;;;22.57;59.12;102241.53;7279044;19;153096;-62
2022/07/07 03:22:50;;;;;;;;;;;;;;;22.56;59.17;102242.66;7285979;19;154297;-61
2022/07/07 03:25:17;;;;;;;;;;;;;;;22.58;59.15;102242.34;7279207;19;152740;-61
2022/07/07 03:27:43;;;;;;;;;;;;;;;22.59;59.02;102249.69;7279216;19;153568;-63
2022/07/07 03:30:10;;;;;;;;;;;;;;;22.57;59.56;102255.63;7277086;19;152717;-61
2022/07/07 03:32:37;;;;;;;;;;;;;;;22.58;59.19;102250.81;7279827;19;151818;-62
2022/07/07 03:35:04;;;;;;;;;;;;;;;22.58;59.28;102245.19;7273628;19;152502;-61
2022/07/07 03:37:33;;;;;;;;;;;;;;;22.58;59.36;102246.03;7278385;19;152475;-63
2022/07/07 03:40:00;;;;;;;;;;;;;;;22.58;58.98;102260.09;7277352;19;153157;-62
2022/07/07 03:42:26;;;;;;;;;;;;;;;22.58;59.44;102262.91;7278320;19;154219;-62
2022/07/07 03:44:53;;;;;;;;;;;;;;;22.58;59.66;102254.47;7287192;19;152389;-62
2022/07/07 03:47:20;;;;;;;;;;;;;;;22.59;59.31;102260.94;7279081;19;153445;-62
2022/07/07 03:49:48;;;;;;;;;;;;;;;22.59;59.50;102270.25;7277643;19;152085;-62
2022/07/07 03:52:15;;;;;;;;;;;;;;;22.60;59.20;102271.94;7279559;19;153245;-62
2022/07/07 03:54:43;;;;;;;;;;;;;;;22.60;59.62;102268.28;7276553;19;154602;-62
2022/07/07 03:57:11;;;;;;;;;;;;;;;22.59;59.64;102270.25;7277325;19;152043;-62
2022/07/07 03:59:38;;;;;;;;;;;;;;;22.61;59.57;102267.16;7275509;19;152539;-61
2022/07/07 04:02:05;;;;;;;;;;;;;;;22.60;59.76;102269.13;7277996;19;154106;-61
2022/07/07 04:04:32;;;;;;;;;;;;;;;22.60;59.76;102262.66;7284433;19;152279;-62
2022/07/07 04:06:59;;;;;;;;;;;;;;;22.59;59.54;102267.44;7271907;19;154509;-62
2022/07/07 04:09:25;;;;;;;;;;;;;;;22.59;59.75;102284.34;7278570;19;152225;-61
2022/07/07 04:11:52;;;;;;;;;;;;;;;22.61;59.55;102278.41;7278230;19;152847;-62
2022/07/07 04:14:19;;;;;;;;;;;;;;;22.66;59.41;102275.56;7275037;19;154278;-61
2022/07/07 04:16:46;;;;;;;;;;;;;;;22.61;59.80;102275.59;7277234;19;152528;-61
2022/07/07 04:19:12;;;;;;;;;;;;;;;22.61;59.37;102279.25;7278515;19;152699;-64
2022/07/07 04:21:39;;;;;;;;;;;;;;;22.59;59.23;102287.16;7275319;19;152624;-62
2022/07/07 04:24:06;;;;;;;;;;;;;;;22.60;59.29;102280.38;7277649;19;152568;-63
2022/07/07 04:26:33;;;;;;;;;;;;;;;22.58;59.50;102293.06;7284779;19;152891;-62
2022/07/07 04:28:59;;;;;;;;;;;;;;;22.58;59.41;102291.09;7283805;19;152085;-62
2022/07/07 04:31:26;;;;;;;;;;;;;;;22.59;59.49;102297.56;7284422;19;154335;-61
2022/07/07 04:33:53;;;;;;;;;;;;;;;22.59;59.62;102297.56;7281542;19;154999;-62
2022/07/07 04:36:20;;;;;;;;;;;;;;;22.60;59.95;102297.28;7282201;19;152283;-61
2022/07/07 04:38:46;;;;;;;;;;;;;;;22.62;59.75;102297.00;7283899;19;153447;-61
2022/07/07 04:41:13;;;;;;;;;;;;;;;22.58;59.89;102305.19;7282802;19;152711;-60
2022/07/07 04:43:40;;;;;;;;;;;;;;;22.59;59.42;102308.84;7284347;19;152717;-61
2022/07/07 04:46:07;;;;;;;;;;;;;;;22.59;59.76;102315.31;7283661;19;152469;-61
2022/07/07 04:48:33;;;;;;;;;;;;;;;22.58;59.37;102312.78;7290018;19;155720;-61
2022/07/07 04:51:00;;;;;;;;;;;;;;;22.58;59.74;102312.78;7282732;19;153325;-61
2022/07/07 04:53:27;;;;;;;;;;;;;;;22.58;59.69;102319.25;7280683;19;153770;-60
2022/07/07 04:55:54;;;;;;;;;;;;;;;22.60;59.65;102313.34;7280840;19;152656;-61
2022/07/07 04:58:21;;;;;;;;;;;;;;;22.60;59.73;102319.00;7284778;19;152642;-61
2022/07/07 05:00:47;;;;;;;;;;;;;;;22.59;60.07;102318.13;7279859;19;154317;-62
2022/07/07 05:03:14;;;;;;;;;;;;;;;22.59;59.70;102320.97;7281182;19;152102;-62
2022/07/07 05:05:41;;;;;;;;;;;;;;;22.60;60.18;102325.47;7281490;19;153932;-61
2022/07/07 05:08:07;;;;;;;;;;;;;;;22.59;59.85;102318.13;7281569;19;152416;-62
2022/07/07 05:10:34;;;;;;;;;;;;;;;22.57;60.10;102322.41;7289431;19;152334;-62
2022/07/07 05:13:01;;;;;;;;;;;;;;;22.58;59.80;102326.88;7282019;19;154139;-62
2022/07/07 05:15:27;;;;;;;;;;;;;;;22.58;59.99;102330.53;7283021;19;151715;-62
2022/07/07 05:17:54;;;;;;;;;;;;;;;22.58;60.37;102329.69;7283927;19;154588;-61
2022/07/07 05:20:24;;;;;;;;;;;;;;;22.57;60.28;102336.47;7280077;19;154377;-62
2022/07/07 05:22:51;;;;;;;;;;;;;;;22.56;60.12;102338.44;7283132;19;152466;-62
2022/07/07 05:25:18;;;;;;;;;;;;;;;22.58;60.19;102355.03;7281637;19;153743;-62
2022/07/07 05:27:45;;;;;;;;;;;;;;;22.57;60.30;102351.41;7281675;19;152163;-61
2022/07/07 05:30:17;;;;;;;;;;;;;;;22.57;60.00;102354.22;7282521;19;151956;-62
2022/07/07 05:32:43;;;;;;;;;;;;;;;22.56;60.03;102363.81;7289354;19;153490;-62
2022/07/07 05:35:10;;;;;;;;;;;;;;;22.58;60.40;102366.31;7279489;19;152480;-61
2022/07/07 05:37:37;;;;;;;;;;;;;;;22.58;59.92;102374.75;7283393;19;153641;-60
2022/07/07 05:40:04;;;;;;;;;;;;;;;22.59;59.92;102373.63;7278500;19;153222;-61
2022/07/07 05:42:30;;;;;;;;;;;;;;;22.58;59.95;102386.88;7283545;19;153083;-61
2022/07/07 05:44:57;;;;;;;;;;;;;;;22.59;60.13;102388.56;7283170;19;153337;-62
2022/07/07 05:47:24;;;;;;;;;;;;;;;22.57;60.20;102393.66;7282296;19;153614;-61
2022/07/07 05:49:50;;;;;;;;;;;;;;;22.59;60.10;102390.53;7280797;19;152169;-61
2022/07/07 05:52:17;;;;;;;;;;;;;;;22.58;60.39;102403.78;7280385;19;152504;-61
2022/07/07 05:54:44;;;;;;;;;;;;;;;22.59;60.31;102404.63;7284766;19;153737;-61
2022/07/07 05:57:10;;;;;;;;;;;;;;;22.62;60.52;102406.88;7281564;19;153601;-61
2022/07/07 05:59:37;;;;;;;;;;;;;;;22.59;60.16;102413.06;7279348;19;152995;-61
2022/07/07 06:02:04;;;;;;;;;;;;;;;22.59;60.21;102408.28;7281104;19;152550;-61
2022/07/07 06:04:42;;;;;;;;;;;;;;;22.59;60.29;102416.75;7281991;19;151989;-61
2022/07/07 06:07:12;;;;;;;;;;;;;;;22.60;60.20;102415.63;7279699;19;153799;-61
2022/07/07 06:09:39;;;;;;;;;;;;;;;22.60;60.22;102421.25;7281038;19;152382;-62
2022/07/07 06:12:06;;;;;;;;;;;;;;;22.58;60.07;102423.50;7281499;19;154537;-61
2022/07/07 06:14:33;;;;;;;;;;;;;;;22.59;60.31;102427.16;7286712;19;153946;-62
2022/07/07 06:17:00;;;;;;;;;;;;;;;22.63;60.78;102431.09;7279191;19;153163;-61
2022/07/07 06:19:27;;;;;;;;;;;;;;;22.68;60.41;102433.06;7280933;19;153904;-62
2022/07/07 06:21:54;;;;;;;;;;;;;;;22.66;60.48;102438.16;7278547;19;152055;-66
2022/07/07 06:24:21;;;;;;;;;;;;;;;22.62;59.90;102447.16;7281568;19;153690;-63
2022/07/07 06:26:47;;;;;;;;;;;;;;;22.63;59.81;102448.00;7280040;19;152673;-63
2022/07/07 06:29:14;;;;;;;;;;;;;;;22.61;59.87;102453.94;7282719;19;151728;-63
2022/07/07 06:31:41;;;;;;;;;;;;;;;22.61;60.06;102461.53;7279615;19;152546;-63
2022/07/07 06:34:07;;;;;;;;;;;;;;;22.61;59.83;102455.91;7279373;19;152553;-63
2022/07/07 06:36:34;;;;;;;;;;;;;;;22.61;59.38;102461.53;7286563;19;152302;-62
2022/07/07 06:39:01;;;;;;;;;;;;;;;22.61;56.56;102459.56;7280143;19;152199;-60
2022/07/07 06:41:35;;;;;;;;;;;;;;;22.67;57.11;102476.47;7280397;19;152672;-61
2022/07/07 06:44:02;;;;;;;;;;;;;;;22.56;54.68;102467.19;7280474;19;153880;-61
2022/07/07 06:46:29;;;;;;;;;;;;;;;22.44;54.67;102464.66;7279727;19;153366;-61
2022/07/07 06:48:56;;;;;;;;;;;;;;;22.35;53.69;102469.19;7280749;19;152027;-61
2022/07/07 06:51:23;;;;;;;;;;;;;;;22.28;53.59;102474.28;7278479;19;153089;-60
2022/07/07 06:53:49;;;;;;;;;;;;;;;22.27;53.63;102474.53;7278725;19;154505;-62
2022/07/07 06:56:16;;;;;;;;;;;;;;;22.26;53.14;102479.34;7276982;19;152498;-60
2022/07/07 06:58:43;;;;;;;;;;;;;;;22.25;53.21;102476.81;7287675;19;152616;-61
2022/07/07 07:01:09;;;;;;;;;;;;;;;22.27;52.92;102483.00;7274502;19;152196;-61
2022/07/07 07:03:36;;;;;;;;;;;;;;;22.18;52.74;102485.53;7281021;19;152711;-62
2022/07/07 07:06:03;;;;;;;;;;;;;;;22.14;52.83;102481.59;7277663;19;153544;-62
2022/07/07 07:08:30;;;;;;;;;;;;;;;22.12;52.74;102495.13;7279794;19;152641;-62
2022/07/07 07:10:57;;;;;;;;;;;;;;;22.13;52.79;102488.34;7280075;19;153250;-62
2022/07/07 07:13:24;;;;;;;;;;;;;;;22.07;52.49;102490.34;7279509;19;153343;-61
2022/07/07 07:15:51;;;;;;;;;;;;;;;22.11;52.23;102497.09;7279979;19;152101;-62
2022/07/07 07:18:18;;;;;;;;;;;;;;;22.11;52.07;102497.09;7277657;19;152898;-62
2022/07/07 07:20:44;;;;;;;;;;;;;;;22.08;52.25;102497.63;7283632;19;152366;-62
2022/07/07 07:23:11;;;;;;;;;;;;;;;22.11;53.07;102504.69;7278449;19;153263;-63
2022/07/07 07:25:38;;;;;;;;;;;;;;;22.14;53.11;102501.31;7278843;19;154154;-63
2022/07/07 07:28:05;;;;;;;;;;;;;;;22.17;53.68;102503.56;7280364;19;152079;-62
2022/07/07 07:30:31;;;;;;;;;;;;;;;22.16;53.69;102513.16;7279473;19;153417;-62
2022/07/07 07:32:58;;;;;;;;;;;;;;;22.16;54.41;102516.81;7277647;19;153298;-62
2022/07/07 07:35:25;;;;;;;;;;;;;;;22.15;54.50;102522.72;7275733;19;152108;-62
2022/07/07 07:37:52;;;;;;;;;;;;;;;22.15;54.34;102534.81;7279785;19;152656;-62
2022/07/07 07:40:18;;;;;;;;;;;;;;;22.14;54.40;102533.13;7277134;19;153131;-62
2022/07/07 07:42:45;;;;;;;;;;;;;;;22.15;54.51;102539.59;7285145;19;153200;-61
2022/07/07 07:45:12;;;;;;;;;;;;;;;22.15;54.89;102531.16;7278493;19;153282;-62
2022/07/07 07:47:41;;;;;;;;;;;;;;;22.16;54.88;102538.47;7281219;19;152318;-61
2022/07/07 07:50:11;;;;;;;;;;;;;;;22.17;54.56;102535.38;7275397;19;152985;-62
2022/07/07 07:52:39;;;;;;;;;;;;;;;22.16;54.37;102535.66;7277887;19;152759;-61
2022/07/07 07:55:10;;;;;;;;;;;;;;;22.18;54.80;102539.03;7275073;19;152228;-62
2022/07/07 07:57:36;;;;;;;;;;;;;;;22.18;54.65;102542.69;7279186;19;152097;-62
2022/07/07 08:00:08;;;;;;;;;;;;;;;22.20;54.64;102542.44;7275408;19;154550;-62
2022/07/07 08:02:35;;;;;;;;;;;;;;;22.19;54.73;102540.72;7281039;19;152316;-62
2022/07/07 08:05:02;;;;;;;;;;;;;;;22.20;54.61;102539.59;7290002;19;153593;-61
2022/07/07 08:07:30;;;;;;;;;;;;;;;22.21;54.23;102551.72;7286772;19;152114;-62
2022/07/07 08:09:56;;;;;;;;;;;;;;;22.21;54.21;102541.31;7282521;19;153577;-62
2022/07/07 08:12:23;;;;;;;;;;;;;;;22.22;54.57;102559.00;7281730;19;153955;-61
2022/07/07 08:14:51;;;;;;;;;;;;;;;22.22;54.12;102559.00;7284206;19;152132;-60
2022/07/07 08:17:17;;;;;;;;;;;;;;;22.21;54.57;102558.19;7282055;19;152489;-61
2022/07/07 08:19:44;;;;;;;;;;;;;;;22.21;54.52;102566.66;7284135;19;153525;-62
2022/07/07 08:22:12;;;;;;;;;;;;;;;22.21;54.47;102558.19;7284024;19;152565;-61
2022/07/07 08:24:38;;;;;;;;;;;;;;;22.23;54.28;102569.16;7287968;19;152129;-62
2022/07/07 08:27:05;;;;;;;;;;;;;;;22.23;54.31;102572.81;7284615;19;152673;-62
2022/07/07 08:29:32;;;;;;;;;;;;;;;22.26;54.35;102568.63;7284972;19;152914;-61
2022/07/07 08:31:59;;;;;;;;;;;;;;;22.24;54.17;102563.25;7283272;19;153567;-62
2022/07/07 08:34:26;;;;;;;;;;;;;;;22.26;54.29;102577.06;7283695;19;152690;-62
2022/07/07 08:36:52;;;;;;;;;;;;;;;22.27;53.93;102578.72;7282226;19;152882;-65
2022/07/07 08:39:19;;;;;;;;;;;;;;;22.27;53.81;102579.59;7282739;19;153160;-62
2022/07/07 08:41:46;;;;;;;;;;;;;;;22.27;53.81;102579.59;7283873;19;152513;-62
2022/07/07 08:44:14;;;;;;;;;;;;;;;22.28;53.68;102578.47;7284653;19;153722;-60
2022/07/07 08:46:41;;;;;;;;;;;;;;;22.28;54.13;102586.06;7290769;19;154215;-61
2022/07/07 08:49:11;;;;;;;;;;;;;;;22.27;53.83;102581.56;7284776;19;153722;-61
2022/07/07 08:51:41;;;;;;;;;;;;;;;22.28;53.78;102591.69;7279710;19;154191;-62
2022/07/07 08:54:12;;;;;;;;;;;;;;;22.30;54.03;102590.31;7281731;19;152142;-62
2022/07/07 08:56:39;;;;;;;;;;;;;;;22.29;53.84;102587.75;7282460;19;153345;-62
2022/07/07 08:59:11;;;;;;;;;;;;;;;22.27;53.75;102599.28;7281212;19;154565;-62
2022/07/07 09:01:37;;;;;;;;;;;;;;;22.29;53.63;102607.47;7282986;19;152542;-61
2022/07/07 09:04:07;;;;;;;;;;;;;;;22.30;54.00;102609.16;7273313;19;152667;-62
2022/07/07 09:06:50;;;;;;;;;;;;;;;22.28;53.87;102614.22;7275594;19;154187;-62
2022/07/07 09:09:26;;;;;;;;;;;;;;;22.28;54.04;102609.44;7288320;19;152378;-62
2022/07/07 09:11:59;;;;;;;;;;;;;;;22.29;53.61;102611.13;7278294;19;154063;-62
2022/07/07 09:14:48;;;;;;;;;;;;;;;22.28;54.03;102617.88;7272151;19;152434;-62
2022/07/07 09:17:28;;;;;;;;;;;;;;;22.29;53.58;102625.22;7281527;19;153565;-62
2022/07/07 09:20:10;;;;;;;;;;;;;;;22.30;53.91;102629.72;7277787;19;154323;-62
2022/07/07 09:22:42;;;;;;;;;;;;;;;22.31;53.97;102633.38;7281697;19;151873;-61
2022/07/07 09:25:09;;;;;;;;;;;;;;;22.30;53.64;102624.09;7280041;19;153425;-61
2022/07/07 09:27:55;;;;;;;;;;;;;;;22.30;53.54;102626.91;7279634;19;153592;-62
2022/07/07 09:30:28;;;;;;;;;;;;;;;22.30;53.94;102638.19;7279370;19;152729;-61
2022/07/07 09:32:55;;;;;;;;;;;;;;;22.33;53.69;102639.56;7286688;19;155032;-61
2022/07/07 09:38:13;;;;;;;;;;;;;;;22.30;53.87;102641.00;7278839;19;153294;-62
2022/07/07 09:40:50;;;;;;;;;;;;;;;22.30;53.72;102643.81;7278231;19;153888;-62
2022/07/07 09:43:18;;;;;;;;;;;;;;;22.31;53.49;102648.28;7280504;19;154484;-62
2022/07/07 09:46:03;;;;;;;;;;;;;;;22.31;53.59;102651.09;7279365;19;152697;-63
2022/07/07 09:48:30;;;;;;;;;;;;;;;22.31;53.96;102653.91;7279875;19;153500;-62
2022/07/07 09:51:09;;;;;;;;;;;;;;;22.31;53.91;102653.06;7271397;19;153801;-62
2022/07/07 09:53:51;;;;;;;;;;;;;;;22.31;53.89;102653.91;7279224;19;152919;-62
2022/07/07 09:56:24;;;;;;;;;;;;;;;22.31;53.28;102656.75;7282819;19;153680;-62
2022/07/07 09:58:52;;;;;;;;;;;;;;;22.30;53.17;102657.88;7273241;19;153438;-62
2022/07/07 10:01:21;;;;;;;;;;;;;;;22.32;53.27;102654.78;7275342;19;154239;-62
2022/07/07 10:03:47;;;;;;;;;;;;;;;22.35;53.40;102666.31;7280447;19;152704;-61
2022/07/07 10:06:14;;;;;;;;;;;;;;;22.45;53.41;102671.97;7277575;19;152250;-60
2022/07/07 10:08:43;;;;;;;;;;;;;;;22.45;53.67;102659.84;7277066;19;153816;-62
2022/07/07 10:11:12;;;;;;;;;;;;;;;22.40;53.48;102662.66;7279332;19;153199;-61
2022/07/07 10:13:42;;;;;;;;;;;;;;;22.39;53.42;102670.28;7280253;19;151964;-63
2022/07/07 10:16:09;;;;;;;;;;;;;;;22.40;54.20;102662.66;7273423;19;153321;-62
2022/07/07 10:18:36;;;;;;;;;;;;;;;22.45;53.42;102659.84;7287061;19;151781;-62
2022/07/07 10:21:03;;;;;;;;;;;;;;;22.43;53.80;102673.41;7276736;19;154853;-62
2022/07/07 10:23:32;;;;;;;;;;;;;;;22.41;53.95;102670.84;7276116;19;152750;-62
2022/07/07 10:26:03;;;;;;;;;;;;;;;22.40;53.96;102677.59;7277648;19;153671;-61
2022/07/07 10:28:48;;;;;;;;;;;;;;;22.40;54.56;102686.03;7279838;19;153143;-61
2022/07/07 10:31:22;;;;;;;;;;;;;;;22.40;54.69;102688.88;7278705;19;151597;-63
2022/07/07 10:33:57;;;;;;;;;;;;;;;22.40;55.28;102697.31;7280075;19;153417;-62
2022/07/07 10:36:24;;;;;;;;;;;;;;;22.42;55.56;102691.41;7273272;19;153607;-61
2022/07/07 10:38:52;;;;;;;;;;;;;;;22.41;55.31;102693.38;7286447;19;154941;-62
2022/07/07 10:41:23;;;;;;;;;;;;;;;22.41;55.31;102693.38;7277451;19;154103;-62
2022/07/07 10:43:57;;;;;;;;;;;;;;;22.42;54.76;102702.69;7281025;19;152413;-62
2022/07/07 10:46:24;;;;;;;;;;;;;;;22.41;54.56;102710.28;7276845;19;152760;-62
2022/07/07 10:48:53;;;;;;;;;;;;;;;22.41;54.48;102710.28;7278658;19;153363;-62
2022/07/07 10:51:21;;;;;;;;;;;;;;;22.40;54.49;102719.84;7278025;19;153096;-62
2022/07/07 10:53:55;;;;;;;;;;;;;;;22.41;54.54;102723.50;7279687;19;152212;-64
2022/07/07 10:56:22;;;;;;;;;;;;;;;22.42;55.03;102734.50;7277405;19;153289;-61
2022/07/07 10:58:56;;;;;;;;;;;;;;;22.40;54.64;102731.13;7280059;19;152602;-61
2022/07/07 11:01:24;;;;;;;;;;;;;;;22.41;54.98;102741.25;7282123;19;152623;-62
2022/07/07 11:03:51;;;;;;;;;;;;;;;22.41;54.90;102738.44;7280368;19;153930;-61
2022/07/07 11:06:21;;;;;;;;;;;;;;;22.41;55.12;102743.22;7277158;19;151828;-65
2022/07/07 11:08:55;;;;;;;;;;;;;;;22.41;55.09;102746.91;7278554;19;154032;-62
2022/07/07 11:11:22;;;;;;;;;;;;;;;22.42;54.79;102744.94;7278104;19;152664;-62
2022/07/07 11:14:01;;;;;;;;;;;;;;;22.42;54.75;102756.19;7280493;19;152304;-63
2022/07/07 11:16:28;;;;;;;;;;;;;;;22.39;54.86;102751.13;7276968;19;153999;-63
2022/07/07 11:18:56;;;;;;;;;;;;;;;22.40;55.04;102755.63;7280528;19;152173;-62
2022/07/07 11:21:42;;;;;;;;;;;;;;;22.39;54.65;102754.78;7278477;19;153301;-62
2022/07/07 11:24:17;;;;;;;;;;;;;;;22.40;54.85;102764.06;7287007;19;154338;-62
2022/07/07 11:26:52;;;;;;;;;;;;;;;22.39;54.69;102763.25;7278504;19;152439;-62
2022/07/07 11:29:19;;;;;;;;;;;;;;;22.40;54.78;102759.28;7280618;19;153909;-63
2022/07/07 11:31:46;;;;;;;;;;;;;;;22.41;54.78;102760.13;7278644;19;153269;-63
2022/07/07 11:34:13;;;;;;;;;;;;;;;22.40;54.97;102767.72;7280268;19;152164;-62
2022/07/07 11:36:41;;;;;;;;;;;;;;;22.41;54.90;102760.13;7270304;19;152623;-61
2022/07/07 11:39:09;;;;;;;;;;;;;;;22.38;54.52;102775.63;7278445;19;154764;-62
2022/07/07 11:41:37;;;;;;;;;;;;;;;22.39;54.76;102763.25;7278719;19;152046;-61
2022/07/07 11:44:04;;;;;;;;;;;;;;;22.39;54.53;102768.88;7279822;19;153365;-62
2022/07/07 11:46:31;;;;;;;;;;;;;;;22.39;54.96;102774.50;7286605;19;152194;-61
2022/07/07 11:48:58;;;;;;;;;;;;;;;22.38;54.78;102780.41;7278522;19;155053;-65
2022/07/07 11:51:29;;;;;;;;;;;;;;;22.37;54.85;102782.38;7276163;19;152423;-61
2022/07/07 11:53:59;;;;;;;;;;;;;;;22.38;54.93;102786.91;7278902;19;152228;-61
2022/07/07 11:56:30;;;;;;;;;;;;;;;22.38;54.88;102784.06;7275664;19;152393;-63
2022/07/07 11:58:58;;;;;;;;;;;;;;;22.38;54.49;102786.03;7279762;19;152455;-62
2022/07/07 12:01:25;;;;;;;;;;;;;;;22.38;54.66;102788.84;7274317;19;151872;-62
2022/07/07 12:03:52;;;;;;;;;;;;;;;22.38;54.52;102786.91;7278700;19;154748;-62
2022/07/07 12:06:24;;;;;;;;;;;;;;;22.37;54.57;102792.78;7276153;19;152427;-62
2022/07/07 12:08:51;;;;;;;;;;;;;;;22.39;54.47;102793.38;7284578;19;152298;-61
2022/07/07 12:11:19;;;;;;;;;;;;;;;22.38;54.81;102791.69;7275539;19;152568;-61
2022/07/07 12:13:46;;;;;;;;;;;;;;;22.39;54.90;102791.41;7279087;19;152512;-61
2022/07/07 12:16:14;;;;;;;;;;;;;;;22.40;54.77;102798.72;7274854;19;154705;-62
2022/07/07 12:18:41;;;;;;;;;;;;;;;22.40;54.41;102801.53;7279034;19;151804;-62
2022/07/07 12:21:12;;;;;;;;;;;;;;;22.40;54.68;102809.97;7276715;19;152729;-62
2022/07/07 12:23:40;;;;;;;;;;;;;;;22.40;54.73;102801.53;7276091;19;152220;-61
2022/07/07 12:26:10;;;;;;;;;;;;;;;22.39;54.99;102811.13;7277127;19;152329;-61
2022/07/07 12:28:38;;;;;;;;;;;;;;;22.39;54.75;102808.31;7279815;19;152705;-63
2022/07/07 12:31:05;;;;;;;;;;;;;;;22.40;54.52;102809.97;7283603;19;152174;-61
2022/07/07 12:33:34;;;;;;;;;;;;;;;22.43;54.74;102811.41;7278153;19;154500;-61
2022/07/07 12:36:14;;;;;;;;;;;;;;;22.44;54.72;102805.47;7273870;19;153294;-62